sensor_id;sensor_type;location;lat;lon;timestamp;P1;durP1;ratioP1;P2;durP2;ratioP2
31482;SDS011;18103;52.246;8.052;2023-06-10T00:02:28;9.60;;;4.17;;
31482;SDS011;18103;52.246;8.052;2023-06-10T00:04:55;8.87;;;4.53;;
31482;SDS011;18103;52.246;8.052;2023-06-10T00:07:24;8.50;;;4.23;;
31482;SDS011;18103;52.246;8.052;2023-06-10T00:09:49;9.87;;;4.40;;
31482;SDS011;18103;52.246;8.052;2023-06-10T00:12:15;7.13;;;4.50;;
31482;SDS011;18103;52.246;8.052;2023-06-10T00:14:42;7.43;;;4.60;;
31482;SDS011;18103;52.246;8.052;2023-06-10T00:17:07;6.47;;;4.27;;
31482;SDS011;18103;52.246;8.052;2023-06-10T00:19:36;8.37;;;3.90;;
31482;SDS011;18103;52.246;8.052;2023-06-10T00:22:06;8.57;;;4.33;;
31482;SDS011;18103;52.246;8.052;2023-06-10T00:24:37;15.63;;;4.20;;
31482;SDS011;18103;52.246;8.052;2023-06-10T00:27:03;6.53;;;4.40;;
31482;SDS011;18103;52.246;8.052;2023-06-10T00:29:28;11.23;;;4.50;;
31482;SDS011;18103;52.246;8.052;2023-06-10T00:31:56;10.13;;;4.90;;
31482;SDS011;18103;52.246;8.052;2023-06-10T00:34:22;9.60;;;4.40;;
31482;SDS011;18103;52.246;8.052;2023-06-10T00:36:50;7.97;;;4.23;;
31482;SDS011;18103;52.246;8.052;2023-06-10T00:39:18;9.43;;;4.10;;
31482;SDS011;18103;52.246;8.052;2023-06-10T00:41:46;6.60;;;3.97;;
31482;SDS011;18103;52.246;8.052;2023-06-10T00:44:11;9.83;;;4.40;;
31482;SDS011;18103;52.246;8.052;2023-06-10T00:46:40;7.43;;;4.73;;
31482;SDS011;18103;52.246;8.052;2023-06-10T00:49:08;12.33;;;4.70;;
31482;SDS011;18103;52.246;8.052;2023-06-10T00:51:34;8.67;;;4.67;;
31482;SDS011;18103;52.246;8.052;2023-06-10T00:54:01;6.43;;;4.20;;
31482;SDS011;18103;52.246;8.052;2023-06-10T00:56:27;7.60;;;4.83;;
31482;SDS011;18103;52.246;8.052;2023-06-10T00:58:55;11.20;;;5.10;;
31482;SDS011;18103;52.246;8.052;2023-06-10T01:01:20;8.90;;;4.23;;
31482;SDS011;18103;52.246;8.052;2023-06-10T01:03:46;6.77;;;4.07;;
31482;SDS011;18103;52.246;8.052;2023-06-10T01:06:20;8.70;;;4.33;;
31482;SDS011;18103;52.246;8.052;2023-06-10T01:09:02;10.47;;;4.63;;
31482;SDS011;18103;52.246;8.052;2023-06-10T01:11:45;8.70;;;4.47;;
31482;SDS011;18103;52.246;8.052;2023-06-10T01:14:35;7.00;;;4.30;;
31482;SDS011;18103;52.246;8.052;2023-06-10T01:17:01;9.27;;;5.00;;
31482;SDS011;18103;52.246;8.052;2023-06-10T01:19:28;8.23;;;4.17;;
31482;SDS011;18103;52.246;8.052;2023-06-10T01:21:56;11.57;;;4.57;;
31482;SDS011;18103;52.246;8.052;2023-06-10T01:24:25;10.53;;;4.60;;
31482;SDS011;18103;52.246;8.052;2023-06-10T01:26:51;14.73;;;5.07;;
31482;SDS011;18103;52.246;8.052;2023-06-10T01:29:21;7.03;;;4.60;;
31482;SDS011;18103;52.246;8.052;2023-06-10T01:32:26;11.47;;;4.70;;
31482;SDS011;18103;52.246;8.052;2023-06-10T01:34:54;12.53;;;4.90;;
31482;SDS011;18103;52.246;8.052;2023-06-10T01:37:22;9.73;;;4.80;;
31482;SDS011;18103;52.246;8.052;2023-06-10T01:39:49;10.37;;;4.90;;
31482;SDS011;18103;52.246;8.052;2023-06-10T01:42:21;9.97;;;4.90;;
31482;SDS011;18103;52.246;8.052;2023-06-10T01:44:50;7.03;;;4.50;;
31482;SDS011;18103;52.246;8.052;2023-06-10T01:47:20;9.90;;;4.93;;
31482;SDS011;18103;52.246;8.052;2023-06-10T01:49:45;9.63;;;4.40;;
31482;SDS011;18103;52.246;8.052;2023-06-10T01:52:11;9.73;;;5.27;;
31482;SDS011;18103;52.246;8.052;2023-06-10T01:54:38;7.33;;;4.27;;
31482;SDS011;18103;52.246;8.052;2023-06-10T01:57:06;8.87;;;5.07;;
31482;SDS011;18103;52.246;8.052;2023-06-10T01:59:31;7.60;;;4.47;;
31482;SDS011;18103;52.246;8.052;2023-06-10T02:02:02;10.03;;;5.07;;
31482;SDS011;18103;52.246;8.052;2023-06-10T02:04:33;9.10;;;4.70;;
31482;SDS011;18103;52.246;8.052;2023-06-10T02:07:01;10.87;;;4.60;;
31482;SDS011;18103;52.246;8.052;2023-06-10T02:09:29;9.23;;;4.60;;
31482;SDS011;18103;52.246;8.052;2023-06-10T02:11:59;10.73;;;4.30;;
31482;SDS011;18103;52.246;8.052;2023-06-10T02:14:27;11.50;;;4.83;;
31482;SDS011;18103;52.246;8.052;2023-06-10T02:16:53;9.87;;;4.50;;
31482;SDS011;18103;52.246;8.052;2023-06-10T02:19:21;7.90;;;4.73;;
31482;SDS011;18103;52.246;8.052;2023-06-10T02:21:49;17.20;;;4.40;;
31482;SDS011;18103;52.246;8.052;2023-06-10T02:24:15;12.03;;;4.60;;
31482;SDS011;18103;52.246;8.052;2023-06-10T02:26:41;10.87;;;4.83;;
31482;SDS011;18103;52.246;8.052;2023-06-10T02:29:06;13.20;;;4.20;;
31482;SDS011;18103;52.246;8.052;2023-06-10T02:31:34;7.07;;;4.00;;
31482;SDS011;18103;52.246;8.052;2023-06-10T02:34:00;6.43;;;4.33;;
31482;SDS011;18103;52.246;8.052;2023-06-10T02:36:28;12.13;;;5.50;;
31482;SDS011;18103;52.246;8.052;2023-06-10T02:38:56;7.33;;;4.67;;
31482;SDS011;18103;52.246;8.052;2023-06-10T02:41:22;5.50;;;4.07;;
31482;SDS011;18103;52.246;8.052;2023-06-10T02:43:50;7.97;;;4.07;;
31482;SDS011;18103;52.246;8.052;2023-06-10T02:46:17;12.60;;;4.97;;
31482;SDS011;18103;52.246;8.052;2023-06-10T02:48:47;7.30;;;4.37;;
31482;SDS011;18103;52.246;8.052;2023-06-10T02:51:16;11.10;;;4.67;;
31482;SDS011;18103;52.246;8.052;2023-06-10T02:53:42;7.60;;;4.33;;
31482;SDS011;18103;52.246;8.052;2023-06-10T02:56:09;6.83;;;4.33;;
31482;SDS011;18103;52.246;8.052;2023-06-10T02:58:36;8.43;;;4.17;;
31482;SDS011;18103;52.246;8.052;2023-06-10T03:01:04;8.83;;;4.43;;
31482;SDS011;18103;52.246;8.052;2023-06-10T03:03:32;10.50;;;4.30;;
31482;SDS011;18103;52.246;8.052;2023-06-10T03:05:58;6.53;;;4.17;;
31482;SDS011;18103;52.246;8.052;2023-06-10T03:08:24;8.57;;;4.00;;
31482;SDS011;18103;52.246;8.052;2023-06-10T03:10:50;10.27;;;4.50;;
31482;SDS011;18103;52.246;8.052;2023-06-10T03:13:15;7.43;;;4.00;;
31482;SDS011;18103;52.246;8.052;2023-06-10T03:15:43;8.20;;;4.53;;
31482;SDS011;18103;52.246;8.052;2023-06-10T03:18:11;6.67;;;4.03;;
31482;SDS011;18103;52.246;8.052;2023-06-10T03:20:39;8.13;;;4.23;;
31482;SDS011;18103;52.246;8.052;2023-06-10T03:23:05;6.83;;;4.00;;
31482;SDS011;18103;52.246;8.052;2023-06-10T03:25:33;8.30;;;4.40;;
31482;SDS011;18103;52.246;8.052;2023-06-10T03:28:01;8.17;;;4.37;;
31482;SDS011;18103;52.246;8.052;2023-06-10T03:30:27;9.80;;;4.27;;
31482;SDS011;18103;52.246;8.052;2023-06-10T03:32:55;8.63;;;4.13;;
31482;SDS011;18103;52.246;8.052;2023-06-10T03:35:23;6.10;;;3.77;;
31482;SDS011;18103;52.246;8.052;2023-06-10T03:37:50;10.03;;;4.13;;
31482;SDS011;18103;52.246;8.052;2023-06-10T03:40:19;7.73;;;4.07;;
31482;SDS011;18103;52.246;8.052;2023-06-10T03:42:47;13.97;;;4.57;;
31482;SDS011;18103;52.246;8.052;2023-06-10T03:45:13;9.13;;;4.10;;
31482;SDS011;18103;52.246;8.052;2023-06-10T03:47:41;9.20;;;4.17;;
31482;SDS011;18103;52.246;8.052;2023-06-10T03:50:08;8.47;;;4.33;;
31482;SDS011;18103;52.246;8.052;2023-06-10T03:52:37;7.43;;;3.80;;
31482;SDS011;18103;52.246;8.052;2023-06-10T03:55:09;7.97;;;3.90;;
31482;SDS011;18103;52.246;8.052;2023-06-10T03:57:36;10.80;;;4.50;;
31482;SDS011;18103;52.246;8.052;2023-06-10T04:00:01;7.70;;;4.63;;
31482;SDS011;18103;52.246;8.052;2023-06-10T04:02:33;8.77;;;4.20;;
31482;SDS011;18103;52.246;8.052;2023-06-10T04:04:59;8.03;;;4.13;;
31482;SDS011;18103;52.246;8.052;2023-06-10T04:07:27;10.00;;;4.80;;
31482;SDS011;18103;52.246;8.052;2023-06-10T04:09:55;9.07;;;4.27;;
31482;SDS011;18103;52.246;8.052;2023-06-10T04:12:21;7.37;;;4.03;;
31482;SDS011;18103;52.246;8.052;2023-06-10T04:14:46;9.53;;;4.10;;
31482;SDS011;18103;52.246;8.052;2023-06-10T04:17:16;10.03;;;3.90;;
31482;SDS011;18103;52.246;8.052;2023-06-10T04:19:41;6.63;;;4.27;;
31482;SDS011;18103;52.246;8.052;2023-06-10T04:22:07;9.97;;;3.77;;
31482;SDS011;18103;52.246;8.052;2023-06-10T04:24:32;12.53;;;3.77;;
31482;SDS011;18103;52.246;8.052;2023-06-10T04:26:57;9.33;;;4.60;;
31482;SDS011;18103;52.246;8.052;2023-06-10T04:29:25;10.77;;;4.33;;
31482;SDS011;18103;52.246;8.052;2023-06-10T04:31:50;10.93;;;3.90;;
31482;SDS011;18103;52.246;8.052;2023-06-10T04:34:18;7.83;;;4.10;;
31482;SDS011;18103;52.246;8.052;2023-06-10T04:36:46;12.13;;;4.40;;
31482;SDS011;18103;52.246;8.052;2023-06-10T04:39:14;9.30;;;4.17;;
31482;SDS011;18103;52.246;8.052;2023-06-10T04:41:42;14.87;;;4.43;;
31482;SDS011;18103;52.246;8.052;2023-06-10T04:44:10;8.63;;;4.20;;
31482;SDS011;18103;52.246;8.052;2023-06-10T04:46:35;12.70;;;5.27;;
31482;SDS011;18103;52.246;8.052;2023-06-10T04:49:01;10.27;;;4.20;;
31482;SDS011;18103;52.246;8.052;2023-06-10T04:51:29;8.73;;;3.93;;
31482;SDS011;18103;52.246;8.052;2023-06-10T04:53:55;7.03;;;4.10;;
31482;SDS011;18103;52.246;8.052;2023-06-10T04:56:20;7.73;;;3.60;;
31482;SDS011;18103;52.246;8.052;2023-06-10T04:58:47;14.30;;;4.20;;
31482;SDS011;18103;52.246;8.052;2023-06-10T05:01:14;5.03;;;3.70;;
31482;SDS011;18103;52.246;8.052;2023-06-10T05:03:40;7.87;;;3.67;;
31482;SDS011;18103;52.246;8.052;2023-06-10T05:06:05;9.40;;;4.27;;
31482;SDS011;18103;52.246;8.052;2023-06-10T05:08:30;8.40;;;3.27;;
31482;SDS011;18103;52.246;8.052;2023-06-10T05:10:56;6.97;;;3.77;;
31482;SDS011;18103;52.246;8.052;2023-06-10T05:13:21;7.17;;;4.13;;
31482;SDS011;18103;52.246;8.052;2023-06-10T05:15:50;11.93;;;3.90;;
31482;SDS011;18103;52.246;8.052;2023-06-10T05:18:17;7.53;;;4.07;;
31482;SDS011;18103;52.246;8.052;2023-06-10T05:20:43;8.30;;;3.93;;
31482;SDS011;18103;52.246;8.052;2023-06-10T05:23:08;5.07;;;3.13;;
31482;SDS011;18103;52.246;8.052;2023-06-10T05:25:34;10.07;;;4.10;;
31482;SDS011;18103;52.246;8.052;2023-06-10T05:28:00;10.27;;;3.77;;
31482;SDS011;18103;52.246;8.052;2023-06-10T05:30:29;9.10;;;4.13;;
31482;SDS011;18103;52.246;8.052;2023-06-10T05:32:55;10.47;;;4.23;;
31482;SDS011;18103;52.246;8.052;2023-06-10T05:35:23;6.60;;;3.60;;
31482;SDS011;18103;52.246;8.052;2023-06-10T05:37:48;9.27;;;4.13;;
31482;SDS011;18103;52.246;8.052;2023-06-10T05:40:14;6.03;;;3.73;;
31482;SDS011;18103;52.246;8.052;2023-06-10T05:42:42;10.70;;;4.10;;
31482;SDS011;18103;52.246;8.052;2023-06-10T05:45:07;8.50;;;3.70;;
31482;SDS011;18103;52.246;8.052;2023-06-10T05:47:33;9.97;;;4.10;;
31482;SDS011;18103;52.246;8.052;2023-06-10T05:49:58;12.40;;;3.90;;
31482;SDS011;18103;52.246;8.052;2023-06-10T05:52:24;7.83;;;4.30;;
31482;SDS011;18103;52.246;8.052;2023-06-10T05:54:51;9.47;;;3.80;;
31482;SDS011;18103;52.246;8.052;2023-06-10T05:57:19;7.07;;;4.00;;
31482;SDS011;18103;52.246;8.052;2023-06-10T05:59:45;9.33;;;3.73;;
31482;SDS011;18103;52.246;8.052;2023-06-10T06:02:10;9.07;;;3.97;;
31482;SDS011;18103;52.246;8.052;2023-06-10T06:04:35;5.90;;;3.83;;
31482;SDS011;18103;52.246;8.052;2023-06-10T06:07:01;9.80;;;4.53;;
31482;SDS011;18103;52.246;8.052;2023-06-10T06:09:26;6.67;;;3.93;;
31482;SDS011;18103;52.246;8.052;2023-06-10T06:11:52;5.93;;;3.70;;
31482;SDS011;18103;52.246;8.052;2023-06-10T06:14:17;10.30;;;3.57;;
31482;SDS011;18103;52.246;8.052;2023-06-10T06:16:46;5.57;;;3.57;;
31482;SDS011;18103;52.246;8.052;2023-06-10T06:19:11;10.67;;;3.93;;
31482;SDS011;18103;52.246;8.052;2023-06-10T06:21:39;10.87;;;3.80;;
31482;SDS011;18103;52.246;8.052;2023-06-10T06:24:06;8.13;;;3.47;;
31482;SDS011;18103;52.246;8.052;2023-06-10T06:26:32;8.17;;;3.80;;
31482;SDS011;18103;52.246;8.052;2023-06-10T06:28:57;12.43;;;4.10;;
31482;SDS011;18103;52.246;8.052;2023-06-10T06:31:27;6.50;;;3.90;;
31482;SDS011;18103;52.246;8.052;2023-06-10T06:33:52;11.07;;;4.13;;
31482;SDS011;18103;52.246;8.052;2023-06-10T06:36:18;9.43;;;4.17;;
31482;SDS011;18103;52.246;8.052;2023-06-10T06:38:45;10.37;;;3.80;;
31482;SDS011;18103;52.246;8.052;2023-06-10T06:41:11;8.77;;;3.53;;
31482;SDS011;18103;52.246;8.052;2023-06-10T06:43:36;9.70;;;4.23;;
31482;SDS011;18103;52.246;8.052;2023-06-10T06:46:05;8.07;;;3.73;;
31482;SDS011;18103;52.246;8.052;2023-06-10T06:48:32;9.53;;;3.60;;
31482;SDS011;18103;52.246;8.052;2023-06-10T06:50:58;5.13;;;3.27;;
31482;SDS011;18103;52.246;8.052;2023-06-10T06:53:23;8.70;;;3.40;;
31482;SDS011;18103;52.246;8.052;2023-06-10T06:55:48;6.90;;;3.57;;
31482;SDS011;18103;52.246;8.052;2023-06-10T06:58:14;7.30;;;3.67;;
31482;SDS011;18103;52.246;8.052;2023-06-10T07:00:39;6.40;;;3.70;;
31482;SDS011;18103;52.246;8.052;2023-06-10T07:03:05;6.00;;;3.33;;
31482;SDS011;18103;52.246;8.052;2023-06-10T07:05:33;5.27;;;3.37;;
31482;SDS011;18103;52.246;8.052;2023-06-10T07:07:58;7.43;;;3.87;;
31482;SDS011;18103;52.246;8.052;2023-06-10T07:10:26;10.40;;;3.50;;
31482;SDS011;18103;52.246;8.052;2023-06-10T07:12:52;9.33;;;3.37;;
31482;SDS011;18103;52.246;8.052;2023-06-10T07:15:17;8.83;;;4.03;;
31482;SDS011;18103;52.246;8.052;2023-06-10T07:17:43;9.37;;;4.00;;
31482;SDS011;18103;52.246;8.052;2023-06-10T07:20:11;10.53;;;4.03;;
31482;SDS011;18103;52.246;8.052;2023-06-10T07:22:37;8.03;;;3.87;;
31482;SDS011;18103;52.246;8.052;2023-06-10T07:25:04;8.80;;;3.33;;
31482;SDS011;18103;52.246;8.052;2023-06-10T07:27:30;6.47;;;3.30;;
31482;SDS011;18103;52.246;8.052;2023-06-10T07:29:55;6.00;;;3.47;;
31482;SDS011;18103;52.246;8.052;2023-06-10T07:32:23;9.30;;;3.70;;
31482;SDS011;18103;52.246;8.052;2023-06-10T07:34:49;8.60;;;3.50;;
31482;SDS011;18103;52.246;8.052;2023-06-10T07:37:15;8.03;;;3.37;;
31482;SDS011;18103;52.246;8.052;2023-06-10T07:39:40;6.40;;;3.63;;
31482;SDS011;18103;52.246;8.052;2023-06-10T07:42:08;5.03;;;3.37;;
31482;SDS011;18103;52.246;8.052;2023-06-10T07:44:33;6.90;;;3.30;;
31482;SDS011;18103;52.246;8.052;2023-06-10T07:46:59;7.20;;;4.10;;
31482;SDS011;18103;52.246;8.052;2023-06-10T07:49:27;6.00;;;3.50;;
31482;SDS011;18103;52.246;8.052;2023-06-10T07:51:57;5.83;;;3.47;;
31482;SDS011;18103;52.246;8.052;2023-06-10T07:54:24;8.67;;;4.00;;
31482;SDS011;18103;52.246;8.052;2023-06-10T07:56:54;9.83;;;3.83;;
31482;SDS011;18103;52.246;8.052;2023-06-10T07:59:20;9.57;;;4.03;;
31482;SDS011;18103;52.246;8.052;2023-06-10T08:01:45;6.00;;;3.70;;
31482;SDS011;18103;52.246;8.052;2023-06-10T08:04:11;6.50;;;3.63;;
31482;SDS011;18103;52.246;8.052;2023-06-10T08:06:39;4.87;;;3.17;;
31482;SDS011;18103;52.246;8.052;2023-06-10T08:09:04;5.50;;;3.50;;
31482;SDS011;18103;52.246;8.052;2023-06-10T08:11:30;7.07;;;4.17;;
31482;SDS011;18103;52.246;8.052;2023-06-10T08:13:58;6.33;;;3.83;;
31482;SDS011;18103;52.246;8.052;2023-06-10T08:16:23;6.27;;;4.03;;
31482;SDS011;18103;52.246;8.052;2023-06-10T08:18:51;7.60;;;3.50;;
31482;SDS011;18103;52.246;8.052;2023-06-10T08:21:19;9.30;;;4.33;;
31482;SDS011;18103;52.246;8.052;2023-06-10T08:23:45;6.90;;;3.63;;
31482;SDS011;18103;52.246;8.052;2023-06-10T08:26:10;11.23;;;4.10;;
31482;SDS011;18103;52.246;8.052;2023-06-10T08:28:35;5.60;;;3.33;;
31482;SDS011;18103;52.246;8.052;2023-06-10T08:31:03;7.10;;;3.50;;
31482;SDS011;18103;52.246;8.052;2023-06-10T08:33:31;8.90;;;4.20;;
31482;SDS011;18103;52.246;8.052;2023-06-10T08:36:00;6.83;;;4.10;;
31482;SDS011;18103;52.246;8.052;2023-06-10T08:38:28;8.20;;;4.07;;
31482;SDS011;18103;52.246;8.052;2023-06-10T08:40:55;8.67;;;3.67;;
31482;SDS011;18103;52.246;8.052;2023-06-10T08:43:34;9.97;;;3.87;;
31482;SDS011;18103;52.246;8.052;2023-06-10T08:46:04;9.63;;;3.83;;
31482;SDS011;18103;52.246;8.052;2023-06-10T08:48:36;9.63;;;3.47;;
31482;SDS011;18103;52.246;8.052;2023-06-10T08:51:10;7.83;;;3.57;;
31482;SDS011;18103;52.246;8.052;2023-06-10T08:53:36;7.30;;;4.17;;
31482;SDS011;18103;52.246;8.052;2023-06-10T08:56:05;6.90;;;3.47;;
31482;SDS011;18103;52.246;8.052;2023-06-10T08:58:32;6.77;;;3.60;;
31482;SDS011;18103;52.246;8.052;2023-06-10T09:01:05;8.23;;;3.40;;
31482;SDS011;18103;52.246;8.052;2023-06-10T09:03:36;11.53;;;3.33;;
31482;SDS011;18103;52.246;8.052;2023-06-10T09:06:03;6.33;;;3.20;;
31482;SDS011;18103;52.246;8.052;2023-06-10T09:08:30;9.40;;;3.40;;
31482;SDS011;18103;52.246;8.052;2023-06-10T09:10:58;6.87;;;3.37;;
31482;SDS011;18103;52.246;8.052;2023-06-10T09:13:26;6.07;;;3.37;;
31482;SDS011;18103;52.246;8.052;2023-06-10T09:15:51;5.37;;;3.43;;
31482;SDS011;18103;52.246;8.052;2023-06-10T09:18:21;5.47;;;3.57;;
31482;SDS011;18103;52.246;8.052;2023-06-10T09:20:47;15.77;;;4.23;;
31482;SDS011;18103;52.246;8.052;2023-06-10T09:23:17;4.80;;;3.33;;
31482;SDS011;18103;52.246;8.052;2023-06-10T09:25:42;6.23;;;3.70;;
31482;SDS011;18103;52.246;8.052;2023-06-10T09:28:14;8.93;;;3.53;;
31482;SDS011;18103;52.246;8.052;2023-06-10T09:30:43;5.87;;;3.67;;
31482;SDS011;18103;52.246;8.052;2023-06-10T09:33:11;8.93;;;3.67;;
31482;SDS011;18103;52.246;8.052;2023-06-10T09:35:49;7.00;;;3.00;;
31482;SDS011;18103;52.246;8.052;2023-06-10T09:38:19;5.80;;;3.30;;
31482;SDS011;18103;52.246;8.052;2023-06-10T09:40:53;12.97;;;3.40;;
31482;SDS011;18103;52.246;8.052;2023-06-10T09:43:19;8.50;;;3.60;;
31482;SDS011;18103;52.246;8.052;2023-06-10T09:45:48;6.50;;;2.87;;
31482;SDS011;18103;52.246;8.052;2023-06-10T09:48:18;10.60;;;4.00;;
31482;SDS011;18103;52.246;8.052;2023-06-10T09:50:44;8.90;;;3.70;;
31482;SDS011;18103;52.246;8.052;2023-06-10T09:53:11;6.27;;;3.50;;
31482;SDS011;18103;52.246;8.052;2023-06-10T09:55:39;7.43;;;3.57;;
31482;SDS011;18103;52.246;8.052;2023-06-10T09:58:06;7.27;;;3.33;;
31482;SDS011;18103;52.246;8.052;2023-06-10T10:00:34;9.67;;;4.10;;
31482;SDS011;18103;52.246;8.052;2023-06-10T10:03:01;8.33;;;3.30;;
31482;SDS011;18103;52.246;8.052;2023-06-10T10:05:29;6.90;;;3.27;;
31482;SDS011;18103;52.246;8.052;2023-06-10T10:08:00;8.40;;;3.57;;
31482;SDS011;18103;52.246;8.052;2023-06-10T10:10:25;6.30;;;3.47;;
31482;SDS011;18103;52.246;8.052;2023-06-10T10:12:52;6.23;;;3.33;;
31482;SDS011;18103;52.246;8.052;2023-06-10T10:15:23;7.23;;;3.77;;
31482;SDS011;18103;52.246;8.052;2023-06-10T10:20:24;4.47;;;3.33;;
31482;SDS011;18103;52.246;8.052;2023-06-10T10:22:56;5.50;;;3.30;;
31482;SDS011;18103;52.246;8.052;2023-06-10T10:25:23;8.43;;;3.20;;
31482;SDS011;18103;52.246;8.052;2023-06-10T10:30:28;6.97;;;3.33;;
31482;SDS011;18103;52.246;8.052;2023-06-10T10:35:53;4.17;;;2.90;;
31482;SDS011;18103;52.246;8.052;2023-06-10T10:38:19;8.40;;;3.40;;
31482;SDS011;18103;52.246;8.052;2023-06-10T10:40:46;8.37;;;3.73;;
31482;SDS011;18103;52.246;8.052;2023-06-10T10:43:12;7.13;;;3.03;;
31482;SDS011;18103;52.246;8.052;2023-06-10T10:45:39;5.73;;;2.97;;
31482;SDS011;18103;52.246;8.052;2023-06-10T10:48:05;5.80;;;2.73;;
31482;SDS011;18103;52.246;8.052;2023-06-10T10:50:36;7.33;;;3.33;;
31482;SDS011;18103;52.246;8.052;2023-06-10T10:53:05;5.93;;;3.27;;
31482;SDS011;18103;52.246;8.052;2023-06-10T10:55:33;6.47;;;3.03;;
31482;SDS011;18103;52.246;8.052;2023-06-10T11:03:07;8.70;;;3.17;;
31482;SDS011;18103;52.246;8.052;2023-06-10T11:08:06;10.70;;;3.07;;
31482;SDS011;18103;52.246;8.052;2023-06-10T11:10:37;5.83;;;3.33;;
31482;SDS011;18103;52.246;8.052;2023-06-10T11:13:13;6.13;;;2.87;;
31482;SDS011;18103;52.246;8.052;2023-06-10T11:15:49;6.50;;;3.23;;
31482;SDS011;18103;52.246;8.052;2023-06-10T11:18:30;4.33;;;3.03;;
31482;SDS011;18103;52.246;8.052;2023-06-10T11:21:04;5.17;;;2.97;;
31482;SDS011;18103;52.246;8.052;2023-06-10T11:23:34;6.13;;;3.33;;
31482;SDS011;18103;52.246;8.052;2023-06-10T11:28:39;5.90;;;3.20;;
31482;SDS011;18103;52.246;8.052;2023-06-10T11:34:06;6.47;;;2.70;;
31482;SDS011;18103;52.246;8.052;2023-06-10T11:36:33;8.47;;;3.80;;
31482;SDS011;18103;52.246;8.052;2023-06-10T11:39:04;4.17;;;2.83;;
31482;SDS011;18103;52.246;8.052;2023-06-10T11:41:31;4.33;;;3.17;;
31482;SDS011;18103;52.246;8.052;2023-06-10T11:44:01;5.97;;;3.60;;
31482;SDS011;18103;52.246;8.052;2023-06-10T11:46:28;7.83;;;3.40;;
31482;SDS011;18103;52.246;8.052;2023-06-10T11:48:54;6.03;;;3.43;;
31482;SDS011;18103;52.246;8.052;2023-06-10T11:51:21;6.70;;;3.13;;
31482;SDS011;18103;52.246;8.052;2023-06-10T11:53:47;6.30;;;3.47;;
31482;SDS011;18103;52.246;8.052;2023-06-10T11:56:13;5.93;;;3.30;;
31482;SDS011;18103;52.246;8.052;2023-06-10T11:58:44;8.60;;;3.47;;
31482;SDS011;18103;52.246;8.052;2023-06-10T12:01:10;7.90;;;3.40;;
31482;SDS011;18103;52.246;8.052;2023-06-10T12:03:36;9.60;;;3.33;;
31482;SDS011;18103;52.246;8.052;2023-06-10T12:06:06;8.37;;;3.60;;
31482;SDS011;18103;52.246;8.052;2023-06-10T12:08:34;4.33;;;3.03;;
31482;SDS011;18103;52.246;8.052;2023-06-10T12:11:07;9.67;;;4.73;;
31482;SDS011;18103;52.246;8.052;2023-06-10T12:13:38;6.83;;;3.47;;
31482;SDS011;18103;52.246;8.052;2023-06-10T12:16:13;7.00;;;3.47;;
31482;SDS011;18103;52.246;8.052;2023-06-10T12:18:38;9.00;;;3.90;;
31482;SDS011;18103;52.246;8.052;2023-06-10T12:21:05;6.43;;;3.47;;
31482;SDS011;18103;52.246;8.052;2023-06-10T12:24:06;8.37;;;3.90;;
31482;SDS011;18103;52.246;8.052;2023-06-10T12:29:25;7.83;;;3.67;;
31482;SDS011;18103;52.246;8.052;2023-06-10T12:37:01;8.67;;;4.03;;
31482;SDS011;18103;52.246;8.052;2023-06-10T12:39:29;5.27;;;3.13;;
31482;SDS011;18103;52.246;8.052;2023-06-10T12:41:54;7.40;;;3.90;;
31482;SDS011;18103;52.246;8.052;2023-06-10T12:44:33;8.67;;;3.40;;
31482;SDS011;18103;52.246;8.052;2023-06-10T12:47:06;6.03;;;3.37;;
31482;SDS011;18103;52.246;8.052;2023-06-10T12:49:41;7.60;;;4.00;;
31482;SDS011;18103;52.246;8.052;2023-06-10T12:52:07;7.90;;;3.67;;
31482;SDS011;18103;52.246;8.052;2023-06-10T12:54:34;5.97;;;3.83;;
31482;SDS011;18103;52.246;8.052;2023-06-10T12:57:02;5.20;;;3.23;;
31482;SDS011;18103;52.246;8.052;2023-06-10T12:59:30;7.90;;;3.77;;
31482;SDS011;18103;52.246;8.052;2023-06-10T13:01:58;5.70;;;3.90;;
31482;SDS011;18103;52.246;8.052;2023-06-10T13:04:23;9.43;;;3.77;;
31482;SDS011;18103;52.246;8.052;2023-06-10T13:06:48;11.03;;;3.93;;
31482;SDS011;18103;52.246;8.052;2023-06-10T13:09:14;5.17;;;3.57;;
31482;SDS011;18103;52.246;8.052;2023-06-10T13:11:42;6.70;;;3.93;;
31482;SDS011;18103;52.246;8.052;2023-06-10T13:14:08;5.70;;;3.83;;
31482;SDS011;18103;52.246;8.052;2023-06-10T13:16:35;5.83;;;3.97;;
31482;SDS011;18103;52.246;8.052;2023-06-10T13:19:05;9.77;;;4.07;;
31482;SDS011;18103;52.246;8.052;2023-06-10T13:21:33;6.37;;;3.23;;
31482;SDS011;18103;52.246;8.052;2023-06-10T13:24:02;7.73;;;3.60;;
31482;SDS011;18103;52.246;8.052;2023-06-10T13:26:28;8.07;;;3.50;;
31482;SDS011;18103;52.246;8.052;2023-06-10T13:28:53;5.77;;;3.67;;
31482;SDS011;18103;52.246;8.052;2023-06-10T13:31:21;4.87;;;2.63;;
31482;SDS011;18103;52.246;8.052;2023-06-10T13:33:46;3.93;;;3.10;;
31482;SDS011;18103;52.246;8.052;2023-06-10T13:36:12;4.57;;;3.30;;
31482;SDS011;18103;52.246;8.052;2023-06-10T13:38:37;5.13;;;2.83;;
31482;SDS011;18103;52.246;8.052;2023-06-10T13:41:03;12.20;;;3.37;;
31482;SDS011;18103;52.246;8.052;2023-06-10T13:43:28;4.70;;;3.00;;
31482;SDS011;18103;52.246;8.052;2023-06-10T13:45:59;6.13;;;3.53;;
31482;SDS011;18103;52.246;8.052;2023-06-10T13:48:27;6.83;;;3.83;;
31482;SDS011;18103;52.246;8.052;2023-06-10T13:50:52;4.90;;;3.27;;
31482;SDS011;18103;52.246;8.052;2023-06-10T13:53:22;10.37;;;3.50;;
31482;SDS011;18103;52.246;8.052;2023-06-10T13:55:47;4.97;;;3.10;;
31482;SDS011;18103;52.246;8.052;2023-06-10T13:58:16;4.53;;;3.30;;
31482;SDS011;18103;52.246;8.052;2023-06-10T14:00:41;5.20;;;3.17;;
31482;SDS011;18103;52.246;8.052;2023-06-10T14:03:07;4.63;;;3.13;;
31482;SDS011;18103;52.246;8.052;2023-06-10T14:05:32;7.00;;;3.20;;
31482;SDS011;18103;52.246;8.052;2023-06-10T14:08:00;4.63;;;3.20;;
31482;SDS011;18103;52.246;8.052;2023-06-10T14:10:28;10.60;;;3.70;;
31482;SDS011;18103;52.246;8.052;2023-06-10T14:12:56;6.20;;;4.07;;
31482;SDS011;18103;52.246;8.052;2023-06-10T14:15:25;6.60;;;4.00;;
31482;SDS011;18103;52.246;8.052;2023-06-10T14:17:50;7.60;;;3.33;;
31482;SDS011;18103;52.246;8.052;2023-06-10T14:20:16;4.87;;;3.60;;
31482;SDS011;18103;52.246;8.052;2023-06-10T14:22:44;8.20;;;3.13;;
31482;SDS011;18103;52.246;8.052;2023-06-10T14:25:09;5.00;;;2.80;;
31482;SDS011;18103;52.246;8.052;2023-06-10T14:27:36;6.30;;;3.33;;
31482;SDS011;18103;52.246;8.052;2023-06-10T14:30:01;4.73;;;3.27;;
31482;SDS011;18103;52.246;8.052;2023-06-10T14:32:28;8.10;;;3.23;;
31482;SDS011;18103;52.246;8.052;2023-06-10T14:34:53;7.53;;;4.33;;
31482;SDS011;18103;52.246;8.052;2023-06-10T14:37:21;6.67;;;3.53;;
31482;SDS011;18103;52.246;8.052;2023-06-10T14:39:48;7.97;;;4.50;;
31482;SDS011;18103;52.246;8.052;2023-06-10T14:42:16;8.00;;;3.53;;
31482;SDS011;18103;52.246;8.052;2023-06-10T14:44:44;7.33;;;3.93;;
31482;SDS011;18103;52.246;8.052;2023-06-10T14:47:11;5.60;;;3.43;;
31482;SDS011;18103;52.246;8.052;2023-06-10T14:49:39;5.07;;;3.47;;
31482;SDS011;18103;52.246;8.052;2023-06-10T14:52:07;6.47;;;4.07;;
31482;SDS011;18103;52.246;8.052;2023-06-10T14:54:37;7.97;;;3.93;;
31482;SDS011;18103;52.246;8.052;2023-06-10T14:57:05;4.97;;;3.77;;
31482;SDS011;18103;52.246;8.052;2023-06-10T14:59:33;5.83;;;3.17;;
31482;SDS011;18103;52.246;8.052;2023-06-10T15:01:59;5.77;;;3.40;;
31482;SDS011;18103;52.246;8.052;2023-06-10T15:04:26;5.07;;;3.47;;
31482;SDS011;18103;52.246;8.052;2023-06-10T15:06:52;4.87;;;3.10;;
31482;SDS011;18103;52.246;8.052;2023-06-10T15:09:17;4.73;;;3.90;;
31482;SDS011;18103;52.246;8.052;2023-06-10T15:11:46;5.87;;;3.50;;
31482;SDS011;18103;52.246;8.052;2023-06-10T15:14:14;7.80;;;4.13;;
31482;SDS011;18103;52.246;8.052;2023-06-10T15:16:39;5.77;;;3.70;;
31482;SDS011;18103;52.246;8.052;2023-06-10T15:19:05;4.20;;;3.10;;